createdAt,value
2018-07-12T00:02:03.954Z,8.53
2018-07-12T00:04:33.329Z,7.57
2018-07-12T00:07:02.725Z,7.47
2018-07-12T00:09:32.190Z,7.37
2018-07-12T00:12:01.887Z,7.83
2018-07-12T00:14:31.631Z,7.93
2018-07-12T00:17:01.039Z,8.37
2018-07-12T00:19:30.563Z,7.60
2018-07-12T00:21:59.938Z,9.60
2018-07-12T00:24:29.353Z,7.77
2018-07-12T00:26:59.237Z,8.23
2018-07-12T00:29:28.624Z,8.10
2018-07-12T00:31:58.033Z,7.77
2018-07-12T00:34:27.478Z,8.27
2018-07-12T00:36:56.892Z,9.27
2018-07-12T00:39:26.300Z,9.13
2018-07-12T00:41:55.683Z,8.67
2018-07-12T00:44:25.083Z,8.20
2018-07-12T00:46:54.425Z,8.13
2018-07-12T00:49:23.931Z,8.90
2018-07-12T00:51:53.714Z,9.00
2018-07-12T00:54:23.239Z,8.40
2018-07-12T00:56:52.588Z,8.87
2018-07-12T00:59:22.009Z,8.53
2018-07-12T01:01:51.486Z,7.80
2018-07-12T01:04:20.939Z,9.30
2018-07-12T01:06:50.341Z,9.40
2018-07-12T01:09:19.911Z,9.10
2018-07-12T01:11:49.267Z,8.73
2018-07-12T01:14:18.779Z,9.87
2018-07-12T01:16:48.380Z,9.30
2018-07-12T01:19:17.761Z,9.60
2018-07-12T01:21:47.108Z,9.53
2018-07-12T01:24:16.592Z,9.60
2018-07-12T01:26:45.961Z,9.80
2018-07-12T01:29:15.581Z,8.90
2018-07-12T01:31:44.967Z,10.83
2018-07-12T01:34:14.377Z,9.60
2018-07-12T01:36:44.087Z,9.33
2018-07-12T01:39:13.385Z,9.10
2018-07-12T01:41:42.750Z,7.90
2018-07-12T01:44:12.213Z,8.23
2018-07-12T01:46:41.630Z,8.27
2018-07-12T01:49:11.022Z,9.57
2018-07-12T01:51:40.421Z,9.10
2018-07-12T01:54:09.773Z,7.30
2018-07-12T01:56:39.187Z,8.00
2018-07-12T01:59:08.709Z,8.37
2018-07-12T02:01:38.392Z,8.53
2018-07-12T02:04:07.753Z,8.73
2018-07-12T02:06:37.149Z,8.83
2018-07-12T02:09:06.757Z,7.50
2018-07-12T02:11:36.136Z,7.77
2018-07-12T02:14:05.713Z,8.47
2018-07-12T02:16:35.077Z,8.87
2018-07-12T02:19:04.460Z,8.00
2018-07-12T02:21:34.003Z,8.37
2018-07-12T02:24:03.422Z,8.43
2018-07-12T02:26:32.800Z,7.67
2018-07-12T02:29:02.177Z,7.10
2018-07-12T02:31:31.697Z,8.07
2018-07-12T02:34:01.214Z,7.77
2018-07-12T02:36:30.655Z,7.37
2018-07-12T02:39:00.238Z,7.27
2018-07-12T02:41:29.861Z,8.93
2018-07-12T02:43:59.209Z,7.20
2018-07-12T02:46:28.618Z,8.00
2018-07-12T02:48:58.049Z,7.77
2018-07-12T02:51:27.470Z,7.63
2018-07-12T02:53:56.865Z,7.43
2018-07-12T02:56:26.265Z,8.10
2018-07-12T02:58:55.627Z,8.27
2018-07-12T03:01:25.191Z,7.67
2018-07-12T03:03:54.903Z,8.57
2018-07-12T03:06:24.301Z,7.73
2018-07-12T03:08:53.746Z,7.53
2018-07-12T03:11:23.345Z,8.00
2018-07-12T03:13:52.929Z,7.40
2018-07-12T03:16:22.373Z,7.97
2018-07-12T03:18:51.749Z,7.70
2018-07-12T03:21:21.359Z,7.70
2018-07-12T03:23:50.733Z,7.27
2018-07-12T03:26:20.588Z,9.67
2018-07-12T03:28:50.080Z,7.73
2018-07-12T03:31:19.440Z,7.83
2018-07-12T03:33:49.017Z,9.13
2018-07-12T03:36:18.453Z,7.33
2018-07-12T03:38:48.075Z,6.60
2018-07-12T03:41:17.301Z,7.93
2018-07-12T03:43:46.624Z,8.17
2018-07-12T03:46:16.005Z,9.53
2018-07-12T03:48:45.558Z,8.30
2018-07-12T03:51:14.949Z,8.57
2018-07-12T03:53:44.301Z,10.60
2018-07-12T03:56:13.769Z,7.90
2018-07-12T03:58:43.397Z,8.93
2018-07-12T04:01:12.771Z,8.23
2018-07-12T04:03:42.272Z,9.00
2018-07-12T04:06:12.287Z,8.63
2018-07-12T04:08:41.463Z,8.80
2018-07-12T04:11:10.865Z,8.17
2018-07-12T04:13:40.347Z,9.07
2018-07-12T04:16:09.865Z,8.60
2018-07-12T04:18:39.234Z,8.17
2018-07-12T04:21:08.581Z,8.80
2018-07-12T04:23:37.977Z,9.23
2018-07-12T04:26:07.317Z,9.43
2018-07-12T04:28:36.714Z,8.63
2018-07-12T04:31:06.126Z,9.23
2018-07-12T04:33:35.496Z,10.00
2018-07-12T04:36:05.146Z,10.13
2018-07-12T04:38:34.504Z,9.30
2018-07-12T04:41:04.033Z,10.03
2018-07-12T04:43:33.493Z,10.30
2018-07-12T04:46:02.963Z,9.17
2018-07-12T04:48:32.572Z,8.80
2018-07-12T04:51:01.999Z,9.50
2018-07-12T04:53:31.577Z,9.17
2018-07-12T04:56:01.342Z,8.93
2018-07-12T04:58:30.810Z,11.93
2018-07-12T05:01:00.352Z,9.33
2018-07-12T05:03:29.773Z,9.47
2018-07-12T05:05:59.200Z,10.27
2018-07-12T05:08:28.618Z,13.03
2018-07-12T05:10:57.970Z,9.07
2018-07-12T05:13:27.504Z,8.87
2018-07-12T05:15:56.931Z,10.77
2018-07-12T05:18:26.302Z,8.33
2018-07-12T05:20:55.666Z,10.93
2018-07-12T05:23:25.142Z,9.53
2018-07-12T05:25:54.827Z,9.50
2018-07-12T05:28:24.230Z,9.90
2018-07-12T05:30:55.072Z,10.00
2018-07-12T05:33:24.718Z,9.77
2018-07-12T05:35:56.093Z,11.00
2018-07-12T05:38:27.668Z,10.60
2018-07-12T05:40:59.271Z,12.33
2018-07-12T05:43:30.598Z,11.80
2018-07-12T05:46:02.008Z,12.40
2018-07-12T05:48:33.554Z,11.03
2018-07-12T05:51:05.386Z,11.20
2018-07-12T05:53:37.042Z,13.03
2018-07-12T05:56:08.962Z,9.97
2018-07-12T05:58:40.621Z,10.87
2018-07-12T06:01:28.860Z,9.53
2018-07-12T06:04:00.511Z,11.50
2018-07-12T06:06:32.059Z,9.63
2018-07-12T06:09:04.914Z,12.43
2018-07-12T06:11:37.024Z,9.80
2018-07-12T06:14:09.108Z,10.87
2018-07-12T06:16:40.673Z,10.17
2018-07-12T06:19:12.546Z,9.97
2018-07-12T06:21:44.176Z,11.33
2018-07-12T06:24:16.225Z,9.63
2018-07-12T06:26:48.610Z,9.57
2018-07-12T06:29:19.677Z,11.70
2018-07-12T06:31:51.415Z,13.00
2018-07-12T06:34:22.837Z,13.93
2018-07-12T06:36:54.791Z,13.50
2018-07-12T06:39:26.673Z,11.73
2018-07-12T06:41:58.470Z,12.47
2018-07-12T06:44:30.395Z,12.23
2018-07-12T06:47:01.861Z,11.97
2018-07-12T06:49:33.332Z,22.73
2018-07-12T06:52:05.001Z,13.73
2018-07-12T06:54:36.725Z,11.67
2018-07-12T06:57:08.496Z,11.93
2018-07-12T06:59:40.034Z,13.23
2018-07-12T07:02:11.845Z,15.70
2018-07-12T07:04:43.568Z,14.37
2018-07-12T07:07:15.472Z,14.23
2018-07-12T07:09:47.353Z,13.00
2018-07-12T07:12:19.152Z,12.43
2018-07-12T07:14:50.646Z,14.47
2018-07-12T07:17:22.313Z,13.13
2018-07-12T07:19:53.773Z,13.20
2018-07-12T07:22:25.942Z,14.47
2018-07-12T07:24:57.455Z,12.27
2018-07-12T07:27:29.058Z,12.07
2018-07-12T07:30:00.589Z,12.47
2018-07-12T07:32:32.512Z,12.20
2018-07-12T07:35:04.922Z,11.17
2018-07-12T07:37:36.461Z,13.83
2018-07-12T07:40:08.227Z,11.73
2018-07-12T07:42:39.822Z,18.10
2018-07-12T07:45:11.071Z,13.60
2018-07-12T07:47:42.443Z,13.97
2018-07-12T07:50:14.020Z,11.33
2018-07-12T07:52:45.725Z,10.40
2018-07-12T07:55:17.289Z,11.80
2018-07-12T07:57:49.097Z,12.40
2018-07-12T08:00:20.736Z,11.00
2018-07-12T08:02:52.566Z,11.77
2018-07-12T08:05:24.802Z,13.67
2018-07-12T08:07:56.427Z,12.23
2018-07-12T08:10:28.945Z,11.10
2018-07-12T08:13:00.716Z,11.17
2018-07-12T08:15:32.427Z,10.93
2018-07-12T08:18:03.862Z,12.10
2018-07-12T08:20:35.260Z,11.03
2018-07-12T08:23:07.318Z,10.47
2018-07-12T08:25:38.926Z,12.70
2018-07-12T08:28:24.185Z,14.03
2018-07-12T08:30:56.097Z,8.90
2018-07-12T08:33:27.968Z,9.83
2018-07-12T08:35:59.704Z,8.97
2018-07-12T08:38:31.354Z,9.03
2018-07-12T08:41:03.566Z,9.73
2018-07-12T08:43:35.740Z,9.40
2018-07-12T08:46:07.751Z,9.50
2018-07-12T08:48:39.840Z,13.30
2018-07-12T08:51:11.377Z,11.23
2018-07-12T08:53:42.904Z,10.73
2018-07-12T08:56:14.780Z,12.17
2018-07-12T08:58:46.440Z,10.47
2018-07-12T09:01:17.876Z,11.60
2018-07-12T09:03:49.550Z,10.93
2018-07-12T09:06:21.137Z,12.83
2018-07-12T09:08:52.906Z,14.50
2018-07-12T09:11:24.715Z,14.00
2018-07-12T09:13:56.319Z,17.90
2018-07-12T09:16:28.257Z,17.80
2018-07-12T09:19:00.235Z,18.53
2018-07-12T09:21:31.826Z,16.13
2018-07-12T09:24:03.112Z,15.27
2018-07-12T09:26:35.250Z,15.97
2018-07-12T09:29:07.329Z,18.10
2018-07-12T09:31:39.442Z,19.70
2018-07-12T09:34:11.231Z,16.53
2018-07-12T09:36:49.485Z,16.57
2018-07-12T09:39:21.174Z,19.30
2018-07-12T09:41:54.080Z,19.83
2018-07-12T09:44:25.693Z,17.90
2018-07-12T09:46:57.086Z,17.70
2018-07-12T09:49:28.485Z,17.50
2018-07-12T09:51:59.988Z,16.90
2018-07-12T09:54:31.693Z,16.37
2018-07-12T09:58:20.965Z,29.23
2018-07-12T10:00:57.943Z,16.53
2018-07-12T10:03:34.861Z,17.10
2018-07-12T10:06:12.136Z,19.03
2018-07-12T10:08:49.661Z,18.67
2018-07-12T10:11:26.845Z,16.10
2018-07-12T10:14:02.771Z,14.97
2018-07-12T10:16:39.398Z,15.67
2018-07-12T10:19:10.898Z,16.47
2018-07-12T10:21:42.445Z,16.27
2018-07-12T10:24:14.006Z,16.93
2018-07-12T10:26:45.596Z,18.67
2018-07-12T10:29:17.127Z,13.43
2018-07-12T10:31:48.831Z,11.93
2018-07-12T10:34:20.764Z,10.87
2018-07-12T10:36:52.447Z,12.20
2018-07-12T10:39:23.936Z,14.27
2018-07-12T10:41:56.410Z,12.65
2018-07-12T10:44:28.495Z,13.15
2018-07-12T10:47:01.322Z,12.47
2018-07-12T10:49:33.525Z,11.80
2018-07-12T10:52:05.773Z,11.18
2018-07-12T10:54:37.869Z,12.60
2018-07-12T10:57:09.949Z,12.68
2018-07-12T10:59:42.051Z,13.03
2018-07-12T11:02:14.188Z,11.45
2018-07-12T11:04:46.260Z,10.80
2018-07-12T11:07:18.484Z,11.10
2018-07-12T11:09:50.673Z,11.35
2018-07-12T11:12:22.941Z,10.53
2018-07-12T11:14:55.024Z,11.65
2018-07-12T11:17:27.168Z,11.12
2018-07-12T11:19:59.555Z,9.43
2018-07-12T11:22:31.853Z,12.80
2018-07-12T11:25:04.017Z,10.08
2018-07-12T11:27:36.053Z,10.98
2018-07-12T11:30:08.475Z,10.78
2018-07-12T11:32:40.963Z,10.32
2018-07-12T11:35:13.090Z,10.68
2018-07-12T11:37:45.166Z,9.85
2018-07-12T11:40:17.428Z,15.35
2018-07-12T11:42:49.942Z,8.93
2018-07-12T11:45:22.151Z,9.53
2018-07-12T11:47:54.353Z,9.08
2018-07-12T11:50:26.561Z,9.55
2018-07-12T11:52:58.741Z,9.65
2018-07-12T11:55:30.934Z,8.00
2018-07-12T11:58:03.010Z,7.83
2018-07-12T12:00:35.142Z,7.75
2018-07-12T12:03:07.338Z,7.72
2018-07-12T12:05:39.586Z,9.05
2018-07-12T12:08:12.141Z,8.08
2018-07-12T12:10:45.198Z,8.28
2018-07-12T12:13:17.429Z,8.10
2018-07-12T12:15:49.485Z,7.62
2018-07-12T12:18:22.019Z,7.92
2018-07-12T12:20:54.182Z,7.20
2018-07-12T12:23:26.370Z,5.97
2018-07-12T12:25:58.549Z,6.05
2018-07-12T12:28:30.700Z,7.20
2018-07-12T12:31:02.827Z,9.75
2018-07-12T12:33:35.045Z,6.30
2018-07-12T12:36:07.309Z,6.37
2018-07-12T12:38:39.443Z,6.35
2018-07-12T12:41:14.413Z,5.92
2018-07-12T12:43:46.877Z,7.78
2018-07-12T12:46:19.235Z,6.30
2018-07-12T12:48:51.299Z,4.90
2018-07-12T12:51:23.373Z,5.72
2018-07-12T12:53:55.335Z,4.97
2018-07-12T12:56:27.465Z,6.42
2018-07-12T12:58:59.588Z,4.55
2018-07-12T13:01:31.899Z,5.85
2018-07-12T13:04:04.520Z,5.08
2018-07-12T13:06:36.847Z,4.28
2018-07-12T13:09:08.942Z,4.22
2018-07-12T13:11:40.996Z,3.65
2018-07-12T13:14:13.457Z,4.12
2018-07-12T13:16:45.513Z,3.52
2018-07-12T13:19:17.661Z,4.35
2018-07-12T13:21:49.739Z,2.87
2018-07-12T13:24:21.980Z,3.30
2018-07-12T13:26:54.055Z,3.42
2018-07-12T13:29:26.305Z,5.42
2018-07-12T13:31:58.404Z,3.60
2018-07-12T13:34:30.618Z,4.95
2018-07-12T13:37:02.673Z,10.48
2018-07-12T13:39:34.751Z,5.20
2018-07-12T13:42:07.027Z,4.67
2018-07-12T13:44:39.072Z,4.03
2018-07-12T13:47:11.076Z,3.95
2018-07-12T13:49:43.277Z,3.08
2018-07-12T13:52:15.710Z,3.12
2018-07-12T13:54:48.139Z,5.20
2018-07-12T13:57:20.155Z,3.95
2018-07-12T13:59:52.280Z,3.10
2018-07-12T14:02:24.364Z,3.25
2018-07-12T14:04:56.720Z,3.58
2018-07-12T14:07:28.921Z,2.80
2018-07-12T14:10:01.116Z,4.00
2018-07-12T14:12:33.178Z,3.90
2018-07-12T14:15:05.320Z,2.85
2018-07-12T14:17:37.453Z,11.70
2018-07-12T14:20:09.708Z,3.62
2018-07-12T14:22:41.741Z,3.90
2018-07-12T14:25:14.265Z,3.42
2018-07-12T14:27:46.336Z,2.92
2018-07-12T14:30:18.481Z,3.62
2018-07-12T14:32:50.926Z,3.65
2018-07-12T14:35:23.020Z,2.72
2018-07-12T14:37:55.088Z,2.70
2018-07-12T14:40:27.498Z,3.27
2018-07-12T14:42:59.598Z,3.85
2018-07-12T14:45:31.841Z,3.37
2018-07-12T14:48:04.274Z,3.20
2018-07-12T14:50:36.437Z,3.05
2018-07-12T14:53:08.535Z,3.65
2018-07-12T14:55:41.806Z,3.62
2018-07-12T14:58:14.182Z,2.70
2018-07-12T15:00:46.303Z,2.60
2018-07-12T15:03:18.752Z,3.67
2018-07-12T15:05:51.188Z,4.10
2018-07-12T15:08:23.237Z,3.65
2018-07-12T15:10:55.230Z,3.40
2018-07-12T15:13:27.336Z,3.25
2018-07-12T15:15:59.545Z,5.65
2018-07-12T15:18:31.656Z,3.12
2018-07-12T15:21:03.678Z,4.28
2018-07-12T15:23:36.040Z,3.12
2018-07-12T15:26:08.079Z,5.50
2018-07-12T15:28:40.245Z,7.30
2018-07-12T15:31:12.391Z,4.03
2018-07-12T15:33:44.456Z,4.58
2018-07-12T15:36:16.683Z,4.83
2018-07-12T15:38:48.860Z,4.05
2018-07-12T15:41:21.266Z,4.33
2018-07-12T15:43:53.393Z,4.25
2018-07-12T15:46:25.877Z,4.37
2018-07-12T15:48:59.669Z,4.50
2018-07-12T15:51:31.683Z,3.85
2018-07-12T15:54:03.794Z,2.70
2018-07-12T15:56:42.267Z,3.35
2018-07-12T15:59:14.382Z,2.98
2018-07-12T16:01:46.551Z,3.67
2018-07-12T16:04:18.712Z,2.77
2018-07-12T16:06:51.106Z,3.37
2018-07-12T16:09:23.305Z,2.95
2018-07-12T16:11:55.800Z,3.98
2018-07-12T16:14:27.863Z,3.70
2018-07-12T16:16:59.883Z,3.20
2018-07-12T16:19:31.922Z,3.50
2018-07-12T16:22:04.484Z,3.00
2018-07-12T16:24:36.674Z,3.52
2018-07-12T16:27:08.754Z,5.37
2018-07-12T16:29:41.376Z,3.25
2018-07-12T16:32:13.474Z,4.53
2018-07-12T16:34:49.171Z,5.78
2018-07-12T16:37:21.327Z,4.65
2018-07-12T16:39:53.486Z,3.42
2018-07-12T16:42:26.472Z,3.37
2018-07-12T16:44:59.088Z,3.62
2018-07-12T16:47:31.139Z,2.42
2018-07-12T16:50:03.521Z,2.62
2018-07-12T16:52:35.586Z,3.85
2018-07-12T16:55:07.745Z,3.30
2018-07-12T16:57:39.958Z,2.92
2018-07-12T17:00:13.381Z,3.50
2018-07-12T17:02:45.434Z,3.27
2018-07-12T17:05:18.311Z,3.40
2018-07-12T17:07:50.407Z,3.67
2018-07-12T17:10:22.549Z,3.30
2018-07-12T17:12:54.595Z,5.70
2018-07-12T17:15:26.631Z,3.50
2018-07-12T17:17:58.761Z,3.92
2018-07-12T17:20:30.903Z,3.30
2018-07-12T17:23:03.008Z,4.28
2018-07-12T17:25:34.532Z,4.60
2018-07-12T17:28:06.684Z,2.92
2018-07-12T17:30:39.000Z,3.25
2018-07-12T17:33:10.970Z,3.43
2018-07-12T17:35:42.790Z,4.00
2018-07-12T17:38:14.263Z,3.62
2018-07-12T17:40:45.735Z,3.13
2018-07-12T17:43:17.429Z,2.73
2018-07-12T17:45:49.018Z,2.80
2018-07-12T17:48:20.572Z,2.53
2018-07-12T17:50:52.729Z,3.43
2018-07-12T17:53:24.555Z,3.13
2018-07-12T17:55:56.126Z,3.17
2018-07-12T17:58:27.682Z,4.80
2018-07-12T18:01:00.094Z,2.20
2018-07-12T18:03:31.532Z,3.30
2018-07-12T18:06:03.132Z,3.17
2018-07-12T18:08:35.025Z,3.03
2018-07-12T18:11:07.334Z,3.67
2018-07-12T18:13:39.057Z,4.03
2018-07-12T18:16:10.961Z,3.20
2018-07-12T18:18:43.081Z,2.60
2018-07-12T18:21:14.635Z,3.10
2018-07-12T18:23:46.911Z,2.83
2018-07-12T18:26:18.815Z,2.97
2018-07-12T18:28:50.557Z,4.60
2018-07-12T18:31:22.116Z,2.33
2018-07-12T18:33:53.703Z,2.37
2018-07-12T18:36:25.355Z,2.23
2018-07-12T18:38:56.929Z,2.53
2018-07-12T18:41:28.479Z,3.23
2018-07-12T18:44:00.051Z,2.57
2018-07-12T18:46:31.950Z,2.40
2018-07-12T18:49:03.516Z,4.50
2018-07-12T18:51:35.089Z,5.40
2018-07-12T18:54:06.990Z,2.60
2018-07-12T18:56:39.209Z,3.40
2018-07-12T18:59:10.875Z,3.40
2018-07-12T19:01:42.317Z,3.37
2018-07-12T19:04:13.888Z,4.20
2018-07-12T19:06:45.496Z,3.80
2018-07-12T19:09:17.468Z,4.33
2018-07-12T19:11:49.183Z,4.90
2018-07-12T19:14:20.801Z,3.20
2018-07-12T19:16:52.679Z,3.00
2018-07-12T19:19:24.218Z,4.47
2018-07-12T19:21:55.833Z,3.73
2018-07-12T19:24:27.387Z,3.90
2018-07-12T19:26:58.950Z,3.90
2018-07-12T19:29:30.790Z,3.67
2018-07-12T19:32:02.417Z,3.53
2018-07-12T19:34:34.186Z,2.97
2018-07-12T19:37:06.029Z,2.53
2018-07-12T19:39:37.780Z,2.60
2018-07-12T19:42:09.327Z,2.50
2018-07-12T19:44:40.976Z,2.50
2018-07-12T19:47:12.621Z,2.50
2018-07-12T19:49:44.364Z,2.30
2018-07-12T19:52:16.243Z,2.80
2018-07-12T19:54:47.846Z,3.30
2018-07-12T19:57:19.518Z,2.40
2018-07-12T19:59:52.008Z,2.70
2018-07-12T20:02:26.091Z,4.87
2018-07-12T20:04:58.342Z,3.10
2018-07-12T20:07:31.122Z,3.27
2018-07-12T20:10:02.651Z,3.20
2018-07-12T20:12:34.205Z,3.13
2018-07-12T20:15:06.013Z,2.80
2018-07-12T20:17:40.934Z,2.73
2018-07-12T20:20:14.789Z,2.60
2018-07-12T20:22:47.320Z,3.90
2018-07-12T20:25:20.193Z,2.93
2018-07-12T20:27:51.991Z,2.80
2018-07-12T20:30:23.555Z,3.03
2018-07-12T20:32:55.097Z,4.03
2018-07-12T20:35:26.653Z,2.87
2018-07-12T20:37:58.990Z,2.70
2018-07-12T20:40:31.270Z,3.47
2018-07-12T20:43:02.833Z,2.87
2018-07-12T20:45:34.390Z,3.00
2018-07-12T20:48:06.384Z,5.30
2018-07-12T20:50:38.093Z,3.00
2018-07-12T20:53:09.693Z,7.60
2018-07-12T20:55:41.645Z,4.30
2018-07-12T20:58:13.220Z,4.37
2018-07-12T21:00:44.915Z,3.97
2018-07-12T21:03:16.511Z,3.07
2018-07-12T21:05:48.090Z,2.70
2018-07-12T21:08:19.923Z,2.60
2018-07-12T21:10:51.581Z,3.33
2018-07-12T21:13:23.148Z,2.93
2018-07-12T21:15:54.678Z,3.40
2018-07-12T21:18:26.256Z,3.07
2018-07-12T21:20:57.856Z,4.00
2018-07-12T21:23:29.372Z,3.93
2018-07-12T21:26:01.156Z,4.17
2018-07-12T21:28:32.693Z,2.60
2018-07-12T21:31:04.337Z,3.07
2018-07-12T21:33:36.036Z,2.97
2018-07-12T21:36:07.900Z,4.50
2018-07-12T21:38:39.345Z,3.43
2018-07-12T21:41:10.870Z,3.23
2018-07-12T21:43:42.511Z,3.57
2018-07-12T21:46:14.004Z,3.37
2018-07-12T21:48:45.665Z,3.40
2018-07-12T21:51:17.321Z,3.40
2018-07-12T21:53:49.209Z,4.43
2018-07-12T21:56:20.883Z,3.40
2018-07-12T21:58:52.443Z,3.17
2018-07-12T22:01:24.430Z,3.63
2018-07-12T22:03:56.168Z,4.30
2018-07-12T22:06:44.594Z,3.17
2018-07-12T22:09:16.177Z,3.27
2018-07-12T22:11:47.788Z,3.50
2018-07-12T22:14:19.515Z,4.27
2018-07-12T22:16:51.393Z,3.63
2018-07-12T22:19:22.889Z,3.37
2018-07-12T22:21:54.370Z,2.93
2018-07-12T22:24:25.878Z,3.23
2018-07-12T22:26:57.374Z,3.20
2018-07-12T22:29:28.833Z,4.30
2018-07-12T22:32:00.625Z,4.17
2018-07-12T22:34:32.230Z,5.77
2018-07-12T22:37:03.742Z,4.33
2018-07-12T22:39:35.222Z,3.30
2018-07-12T22:42:06.716Z,5.20
2018-07-12T22:44:38.190Z,3.83
2018-07-12T22:47:09.696Z,4.13
2018-07-12T22:49:41.229Z,3.07
2018-07-12T22:52:13.070Z,3.57
2018-07-12T22:54:44.605Z,3.00
2018-07-12T22:57:16.433Z,2.93
2018-07-12T22:59:48.365Z,3.10
2018-07-12T23:02:19.874Z,5.73
2018-07-12T23:04:51.455Z,2.30
2018-07-12T23:07:23.016Z,2.77
2018-07-12T23:09:54.665Z,3.63
2018-07-12T23:12:26.199Z,4.33
2018-07-12T23:14:58.017Z,4.57
2018-07-12T23:17:30.028Z,3.93
2018-07-12T23:20:01.619Z,5.27
2018-07-12T23:22:33.117Z,3.83
2018-07-12T23:25:04.757Z,4.23
2018-07-12T23:27:36.220Z,3.97
2018-07-12T23:30:07.760Z,4.00
2018-07-12T23:32:39.269Z,3.03
2018-07-12T23:35:10.751Z,3.70
2018-07-12T23:37:42.240Z,4.87
2018-07-12T23:40:13.497Z,4.77
2018-07-12T23:42:45.100Z,4.60
2018-07-12T23:45:17.159Z,4.67
2018-07-12T23:47:48.888Z,5.83
2018-07-12T23:50:20.377Z,4.63
2018-07-12T23:52:52.213Z,7.93
2018-07-12T23:55:23.658Z,4.27
2018-07-12T23:57:55.146Z,5.57
